Time;durP1;ratioP1;P1;durP2;ratioP2;P2;SDS_P1;SDS_P2;PMS_P1;PMS_P2;Temp;Humidity;BMP_temperature;BMP_pressure;BME280_temperature;BME280_humidity;BME280_pressure;Samples;Min_cycle;Max_cycle;Signal;HPM_P1;HPM_P2
2023/05/15 00:01:55;;;;;;;;;16.25;13.75;22.80;41.40;;;;;;111668;1240;50495;-65
2023/05/15 00:04:22;;;;;;;;;13.00;12.00;22.70;41.40;;;;;;111778;1237;50275;-65
2023/05/15 00:06:49;;;;;;;;;14.00;13.00;22.70;41.30;;;;;;111665;1242;45597;-66
2023/05/15 00:09:16;;;;;;;;;12.25;11.00;22.70;41.50;;;;;;111758;1238;56132;-66
2023/05/15 00:11:43;;;;;;;;;13.00;12.00;22.70;41.30;;;;;;111690;1236;53186;-65
2023/05/15 00:14:10;;;;;;;;;16.00;14.75;22.70;41.40;;;;;;111843;1238;49386;-66
2023/05/15 00:16:37;;;;;;;;;15.00;12.00;22.70;41.40;;;;;;111931;1240;49046;-65
2023/05/15 00:19:04;;;;;;;;;12.50;11.50;22.60;41.30;;;;;;111706;1237;45169;-65
2023/05/15 00:21:31;;;;;;;;;14.00;13.00;22.60;41.50;;;;;;111774;1237;54971;-65
2023/05/15 00:23:58;;;;;;;;;12.25;11.25;22.60;41.40;;;;;;111644;1237;53955;-64
2023/05/15 00:26:25;;;;;;;;;14.67;13.67;22.60;41.30;;;;;;112022;1238;49764;-65
2023/05/15 00:28:52;;;;;;;;;14.00;11.50;22.60;41.50;;;;;;111732;1236;49513;-65
2023/05/15 00:31:19;;;;;;;;;14.00;13.00;22.60;41.30;;;;;;111704;1237;46741;-65
2023/05/15 00:33:46;;;;;;;;;12.75;11.75;22.60;41.30;;;;;;111637;1237;56219;-66
2023/05/15 00:36:13;;;;;;;;;15.50;14.50;22.50;41.20;;;;;;112032;1239;53161;-67
2023/05/15 00:38:40;;;;;;;;;15.00;12.50;22.50;41.50;;;;;;111710;1237;49837;-66
2023/05/15 00:41:09;;;;;;;;;14.25;12.75;22.60;41.30;;;;;;111720;1238;49543;-65
2023/05/15 00:43:38;;;;;;;;;14.50;13.50;22.50;41.20;;;;;;111711;1237;46488;-66
2023/05/15 00:46:06;;;;;;;;;13.00;12.00;22.50;41.30;;;;;;112034;1236;55851;-66
2023/05/15 00:48:34;;;;;;;;;14.25;11.00;22.50;41.30;;;;;;111755;1237;54117;-65
2023/05/15 00:51:01;;;;;;;;;12.00;11.00;22.60;41.30;;;;;;111587;1241;49810;-66
2023/05/15 00:53:28;;;;;;;;;13.75;12.75;22.50;41.10;;;;;;111740;1238;49423;-65
2023/05/15 00:55:57;;;;;;;;;16.00;13.00;22.50;41.20;;;;;;111644;1237;45170;-68
2023/05/15 00:58:27;;;;;;;;;13.00;12.00;22.50;41.20;;;;;;111804;1236;55906;-66
2023/05/15 01:00:55;;;;;;;;;13.25;12.00;22.50;41.20;;;;;;111728;1240;53606;-66
2023/05/15 01:03:22;;;;;;;;;15.50;13.25;22.50;41.20;;;;;;111650;1237;50176;-67
2023/05/15 01:05:50;;;;;;;;;14.25;12.75;22.50;41.20;;;;;;112087;1237;49802;-67
2023/05/15 01:08:26;;;;;;;;;16.00;13.25;22.50;41.30;;;;;;111750;1240;45626;-67
2023/05/15 01:10:54;;;;;;;;;13.33;12.00;22.50;41.20;;;;;;111594;1243;56098;-65
2023/05/15 01:13:22;;;;;;;;;14.00;13.00;22.50;41.20;;;;;;111625;1240;53887;-65
2023/05/15 01:15:49;;;;;;;;;14.50;12.75;22.50;41.20;;;;;;112005;1240;49494;-67
2023/05/15 01:18:16;;;;;;;;;12.00;11.00;22.50;41.20;;;;;;111733;1237;49586;-67
2023/05/15 01:21:15;;;;;;;;;12.50;10.75;22.50;41.70;;;;;;111682;1238;45325;-68
2023/05/15 01:24:07;;;;;;;;;14.00;11.00;22.50;41.30;;;;;;111686;1237;56287;-67
2023/05/15 01:26:56;;;;;;;;;11.00;10.00;22.50;41.20;;;;;;111981;1240;54188;-66
2023/05/15 01:29:41;;;;;;;;;13.33;12.00;22.50;41.20;;;;;;111729;1238;49757;-66
2023/05/15 01:32:13;;;;;;;;;13.25;12.25;22.40;41.00;;;;;;111619;1236;49043;-68
2023/05/15 01:34:51;;;;;;;;;12.50;11.00;22.40;41.30;;;;;;111957;1236;45100;-67
2023/05/15 01:37:23;;;;;;;;;14.00;12.00;22.40;41.10;;;;;;111546;1238;56404;-67
2023/05/15 01:39:53;;;;;;;;;15.00;12.00;22.40;41.10;;;;;;111743;1237;53711;-66
2023/05/15 01:42:25;;;;;;;;;13.00;12.00;22.40;41.20;;;;;;111779;1238;49515;-67
2023/05/15 01:44:54;;;;;;;;;13.00;11.75;22.40;41.00;;;;;;111998;1240;50276;-68
2023/05/15 01:47:28;;;;;;;;;14.33;13.00;22.40;41.10;;;;;;111742;1238;45742;-68
2023/05/15 01:49:56;;;;;;;;;12.75;11.75;22.40;41.50;;;;;;111685;1243;55868;-67
2023/05/15 01:52:28;;;;;;;;;11.50;10.50;22.40;41.20;;;;;;111761;1236;53708;-68
2023/05/15 01:54:56;;;;;;;;;12.25;11.00;22.40;41.00;;;;;;112052;1237;49360;-67
2023/05/15 01:57:25;;;;;;;;;12.50;11.25;22.40;41.20;;;;;;111786;1238;49266;-66
2023/05/15 01:59:53;;;;;;;;;11.00;10.00;22.40;40.90;;;;;;111806;1238;45555;-67
2023/05/15 02:02:22;;;;;;;;;11.67;10.00;22.40;41.10;;;;;;111477;1242;56263;-66
2023/05/15 02:04:50;;;;;;;;;16.00;13.75;22.40;40.90;;;;;;111751;1242;53668;-66
2023/05/15 02:07:17;;;;;;;;;14.50;13.25;22.40;41.00;;;;;;111785;1241;49304;-65
2023/05/15 02:09:44;;;;;;;;;15.75;14.50;22.40;41.00;;;;;;111647;1244;49051;-66
2023/05/15 02:12:12;;;;;;;;;13.50;12.50;22.40;41.20;;;;;;111755;1237;45067;-66
2023/05/15 02:14:40;;;;;;;;;12.67;10.67;22.40;41.00;;;;;;111784;1238;54889;-66
2023/05/15 02:17:07;;;;;;;;;15.00;14.00;22.40;41.20;;;;;;111762;1237;53237;-66
2023/05/15 02:19:34;;;;;;;;;12.67;11.33;22.40;41.00;;;;;;111676;1237;49734;-66
2023/05/15 02:22:01;;;;;;;;;13.00;10.00;22.40;40.90;;;;;;111533;1238;49575;-67
2023/05/15 02:24:28;;;;;;;;;14.00;13.00;22.30;40.90;;;;;;111970;1240;45783;-66
2023/05/15 02:27:04;;;;;;;;;11.25;10.00;22.40;41.20;;;;;;111721;1237;55840;-65
2023/05/15 02:29:30;;;;;;;;;12.00;11.00;22.30;40.90;;;;;;111774;1237;54552;-67
2023/05/15 02:32:16;;;;;;;;;12.00;11.00;22.30;40.90;;;;;;111753;1238;49274;-66
2023/05/15 02:34:55;;;;;;;;;12.25;11.00;22.30;40.90;;;;;;112018;1236;50002;-66
2023/05/15 02:37:27;;;;;;;;;11.50;10.50;22.30;40.90;;;;;;111726;1237;45889;-66
2023/05/15 02:39:54;;;;;;;;;11.33;10.00;22.30;40.90;;;;;;111697;1237;55591;-64
2023/05/15 02:42:21;;;;;;;;;11.00;10.00;22.30;41.10;;;;;;111384;1238;53736;-66
2023/05/15 02:44:50;;;;;;;;;13.25;11.75;22.30;41.10;;;;;;111877;1238;49006;-65
2023/05/15 02:47:18;;;;;;;;;13.00;10.00;22.30;41.10;;;;;;111694;1243;49629;-65
2023/05/15 02:49:45;;;;;;;;;11.25;10.00;22.30;40.90;;;;;;111695;1236;46181;-66
2023/05/15 02:52:12;;;;;;;;;13.00;12.00;22.30;40.90;;;;;;111695;1236;55938;-67
2023/05/15 02:54:39;;;;;;;;;11.25;10.25;22.30;40.90;;;;;;111914;1241;53799;-67
2023/05/15 02:57:07;;;;;;;;;14.00;13.00;22.30;40.90;;;;;;111628;1240;49706;-69
2023/05/15 02:59:34;;;;;;;;;13.00;12.00;22.30;41.10;;;;;;111737;1237;48832;-69
2023/05/15 03:02:02;;;;;;;;;13.67;12.33;22.30;40.90;;;;;;111584;1238;45283;-71
2023/05/15 03:04:29;;;;;;;;;12.33;10.00;22.30;41.00;;;;;;112053;1240;54817;-72
2023/05/15 03:06:56;;;;;;;;;12.75;11.00;22.20;41.10;;;;;;111759;1238;53439;-72
2023/05/15 03:09:24;;;;;;;;;15.00;14.00;22.30;41.20;;;;;;111738;1240;49769;-72
2023/05/15 03:11:51;;;;;;;;;13.75;12.00;22.20;40.90;;;;;;111766;1240;48752;-73
2023/05/15 03:14:18;;;;;;;;;12.75;11.25;22.20;41.40;;;;;;111957;1240;46362;-71
2023/05/15 03:16:45;;;;;;;;;12.50;11.00;22.30;41.00;;;;;;111864;1240;55361;-74
2023/05/15 03:19:12;;;;;;;;;14.25;13.00;22.30;41.00;;;;;;111656;1240;53505;-72
2023/05/15 03:21:39;;;;;;;;;14.00;12.25;22.20;41.10;;;;;;111776;1237;49565;-69
2023/05/15 03:24:06;;;;;;;;;15.00;13.00;22.20;41.10;;;;;;111815;1237;49743;-70
2023/05/15 03:26:33;;;;;;;;;16.25;14.00;22.20;41.00;;;;;;111784;1241;45959;-68
2023/05/15 03:29:01;;;;;;;;;15.75;14.25;22.20;41.00;;;;;;111731;1236;54982;-69
2023/05/15 03:31:28;;;;;;;;;17.00;16.00;22.20;41.10;;;;;;111775;1237;54156;-66
2023/05/15 03:33:54;;;;;;;;;14.00;13.00;22.20;41.10;;;;;;111663;1241;50218;-66
2023/05/15 03:36:21;;;;;;;;;13.00;11.75;22.20;41.00;;;;;;112035;1237;49601;-66
2023/05/15 03:38:48;;;;;;;;;14.00;12.00;22.20;41.20;;;;;;111745;1237;46557;-65
2023/05/15 03:41:15;;;;;;;;;14.00;13.00;22.20;41.00;;;;;;111774;1240;55639;-65
2023/05/15 03:43:42;;;;;;;;;13.75;12.75;22.20;41.00;;;;;;111719;1237;54945;-65
2023/05/15 03:46:09;;;;;;;;;13.00;12.00;22.20;41.00;;;;;;112042;1240;49125;-65
2023/05/15 03:48:36;;;;;;;;;12.00;11.00;22.20;41.00;;;;;;111700;1238;48810;-66
2023/05/15 03:51:03;;;;;;;;;13.33;12.00;22.20;40.60;;;;;;111805;1237;45627;-66
2023/05/15 03:53:30;;;;;;;;;13.00;11.00;22.20;41.10;;;;;;111734;1236;55268;-67
2023/05/15 03:55:57;;;;;;;;;11.67;10.33;22.20;41.10;;;;;;112049;1237;54779;-65
2023/05/15 03:58:24;;;;;;;;;16.25;13.75;22.10;40.90;;;;;;111694;1240;49886;-73
2023/05/15 04:00:51;;;;;;;;;12.00;11.00;22.20;40.90;;;;;;111751;1240;50532;-66
2023/05/15 04:03:18;;;;;;;;;16.75;15.50;22.20;40.90;;;;;;111704;1237;45633;-66
2023/05/15 04:05:48;;;;;;;;;14.50;13.50;22.10;41.00;;;;;;112018;1241;55800;-66
2023/05/15 04:08:15;;;;;;;;;13.75;12.75;22.20;41.00;;;;;;111610;1237;54095;-65
2023/05/15 04:10:42;;;;;;;;;14.00;12.50;22.20;40.90;;;;;;111565;1238;49571;-66
2023/05/15 04:13:09;;;;;;;;;15.50;12.50;22.20;40.90;;;;;;111684;1246;49824;-65
2023/05/15 04:15:37;;;;;;;;;15.75;13.25;22.10;40.80;;;;;;112024;1237;45793;-68
2023/05/15 04:18:04;;;;;;;;;13.00;12.00;22.20;41.00;;;;;;111761;1237;55819;-68
2023/05/15 04:20:32;;;;;;;;;14.75;11.75;22.20;40.90;;;;;;111519;1238;54128;-67
2023/05/15 04:22:59;;;;;;;;;16.25;14.25;22.20;40.90;;;;;;111416;1242;49960;-66
2023/05/15 04:25:26;;;;;;;;;16.00;14.25;22.10;40.90;;;;;;112266;1237;49296;-67
2023/05/15 04:27:54;;;;;;;;;13.25;12.00;22.10;40.90;;;;;;111650;1236;46270;-67
2023/05/15 04:30:21;;;;;;;;;14.75;12.75;22.20;40.80;;;;;;111737;1241;56085;-67
2023/05/15 04:32:48;;;;;;;;;12.00;11.00;22.20;40.80;;;;;;111776;1238;53726;-66
2023/05/15 04:35:15;;;;;;;;;13.00;12.00;22.20;40.90;;;;;;111934;1237;49526;-65
2023/05/15 04:37:44;;;;;;;;;14.25;13.25;22.20;40.90;;;;;;111616;1237;49699;-67
2023/05/15 04:40:13;;;;;;;;;12.00;11.00;22.10;40.80;;;;;;111641;1241;45938;-66
2023/05/15 04:42:41;;;;;;;;;14.75;12.00;22.20;41.10;;;;;;111683;1243;56482;-66
2023/05/15 04:45:08;;;;;;;;;15.00;13.00;22.10;40.80;;;;;;111521;1241;53854;-66
2023/05/15 04:47:36;;;;;;;;;12.33;11.00;22.10;41.10;;;;;;111637;1247;49134;-67
2023/05/15 04:50:03;;;;;;;;;14.00;12.25;22.10;40.90;;;;;;111654;1241;49459;-67
2023/05/15 04:52:31;;;;;;;;;14.00;13.25;22.10;41.00;;;;;;111775;1241;45914;-66
2023/05/15 04:54:58;;;;;;;;;16.00;11.75;22.10;40.90;;;;;;111692;1241;55336;-67
2023/05/15 04:57:25;;;;;;;;;13.00;12.00;22.00;40.80;;;;;;111636;1236;53358;-66
2023/05/15 04:59:52;;;;;;;;;15.50;12.50;22.00;41.00;;;;;;111602;1239;49732;-66
2023/05/15 05:02:23;;;;;;;;;14.00;13.00;22.10;40.90;;;;;;111586;1240;49582;-67
2023/05/15 05:04:50;;;;;;;;;13.00;11.67;22.00;40.80;;;;;;111961;1240;45430;-67
2023/05/15 05:07:17;;;;;;;;;16.00;14.00;22.00;41.10;;;;;;111686;1240;55855;-67
2023/05/15 05:09:44;;;;;;;;;14.00;12.25;22.00;40.80;;;;;;111658;1240;54518;-66
2023/05/15 05:12:11;;;;;;;;;12.75;11.75;22.00;40.80;;;;;;111658;1237;49829;-67
2023/05/15 05:14:40;;;;;;;;;13.50;11.75;22.00;40.80;;;;;;111381;1238;49361;-65
2023/05/15 05:17:08;;;;;;;;;15.67;12.67;22.00;40.90;;;;;;111546;1240;45868;-66
2023/05/15 05:19:34;;;;;;;;;14.00;12.50;22.00;40.90;;;;;;111600;1240;55193;-68
2023/05/15 05:22:04;;;;;;;;;14.00;12.67;22.00;40.90;;;;;;111765;1237;53765;-66
2023/05/15 05:24:31;;;;;;;;;12.33;11.00;22.00;40.90;;;;;;111673;1237;49192;-66
2023/05/15 05:26:59;;;;;;;;;13.50;12.50;22.00;40.90;;;;;;111475;1238;50423;-66
2023/05/15 05:29:26;;;;;;;;;15.00;13.75;22.00;41.40;;;;;;111639;1237;45864;-66
2023/05/15 05:31:53;;;;;;;;;13.75;12.50;22.00;40.90;;;;;;111532;1241;55919;-66
2023/05/15 05:34:20;;;;;;;;;13.50;11.75;22.00;40.90;;;;;;111485;1240;53199;-66
2023/05/15 05:36:47;;;;;;;;;13.00;12.00;22.00;40.90;;;;;;111482;1240;50448;-66
2023/05/15 05:39:15;;;;;;;;;13.50;11.50;22.00;40.90;;;;;;111682;1238;49854;-66
2023/05/15 05:41:43;;;;;;;;;13.75;12.00;22.00;41.10;;;;;;111488;1237;45782;-67
2023/05/15 05:44:10;;;;;;;;;13.00;11.75;22.00;40.90;;;;;;111626;1240;56570;-67
2023/05/15 05:46:37;;;;;;;;;17.00;15.00;22.00;40.90;;;;;;111832;1241;54612;-66
2023/05/15 05:49:04;;;;;;;;;12.75;11.00;22.00;41.00;;;;;;111680;1238;49486;-67
2023/05/15 05:51:33;;;;;;;;;16.75;14.75;22.00;41.10;;;;;;111503;1241;49739;-67
2023/05/15 05:54:00;;;;;;;;;13.75;12.50;22.00;40.90;;;;;;111552;1237;45860;-66
2023/05/15 05:56:27;;;;;;;;;12.00;10.25;22.00;40.90;;;;;;111839;1241;56087;-67
2023/05/15 05:58:55;;;;;;;;;15.75;13.00;22.00;40.90;;;;;;111485;1241;54949;-66
2023/05/15 06:01:22;;;;;;;;;13.75;12.50;22.00;40.90;;;;;;111686;1240;50039;-66
2023/05/15 06:03:49;;;;;;;;;15.00;13.25;22.00;41.00;;;;;;111640;1241;49452;-67
2023/05/15 06:06:16;;;;;;;;;13.67;12.00;22.00;40.90;;;;;;112077;1238;45430;-68
2023/05/15 06:08:43;;;;;;;;;15.00;13.25;22.00;40.90;;;;;;111764;1237;55972;-66
2023/05/15 06:11:10;;;;;;;;;12.75;11.75;22.00;40.90;;;;;;111463;1247;53606;-66
2023/05/15 06:13:37;;;;;;;;;14.00;13.00;22.00;41.00;;;;;;111636;1240;49089;-66
2023/05/15 06:16:05;;;;;;;;;14.00;10.67;22.00;40.80;;;;;;111518;1237;50788;-66
2023/05/15 06:18:32;;;;;;;;;17.75;14.50;22.10;41.00;;;;;;111747;1240;45472;-67
2023/05/15 06:20:59;;;;;;;;;13.00;11.25;22.00;40.90;;;;;;111735;1237;55265;-67
2023/05/15 06:23:26;;;;;;;;;15.50;13.00;22.10;41.20;;;;;;111682;1241;53355;-67
2023/05/15 06:25:53;;;;;;;;;12.50;10.00;22.00;41.10;;;;;;112028;1240;49418;-68
2023/05/15 06:28:20;;;;;;;;;13.75;11.50;22.00;41.30;;;;;;111489;1243;49600;-67
2023/05/15 06:30:47;;;;;;;;;14.75;13.00;22.10;41.10;;;;;;111549;1240;46184;-67
2023/05/15 06:33:14;;;;;;;;;13.00;11.75;22.10;40.90;;;;;;111653;1238;56062;-66
2023/05/15 06:35:41;;;;;;;;;16.00;12.00;22.10;40.60;;;;;;111952;1240;53128;-67
2023/05/15 06:38:08;;;;;;;;;12.75;11.00;22.10;40.90;;;;;;111667;1237;50006;-68
2023/05/15 06:40:35;;;;;;;;;14.75;13.00;22.20;41.00;;;;;;111734;1237;49288;-67
2023/05/15 06:43:02;;;;;;;;;13.00;11.67;22.20;41.00;;;;;;111729;1238;46659;-72
2023/05/15 06:45:30;;;;;;;;;12.00;10.00;22.20;41.00;;;;;;111976;1237;55671;-68
2023/05/15 06:47:57;;;;;;;;;13.75;12.75;22.10;40.90;;;;;;111399;1240;54733;-66
2023/05/15 06:50:24;;;;;;;;;13.00;12.00;22.20;40.90;;;;;;111723;1238;49201;-67
2023/05/15 06:52:51;;;;;;;;;15.67;12.67;22.20;40.90;;;;;;111743;1240;49052;-67
2023/05/15 06:55:18;;;;;;;;;14.00;12.25;22.20;40.90;;;;;;111895;1238;46026;-66
2023/05/15 06:57:45;;;;;;;;;15.00;13.00;22.10;40.40;;;;;;111658;1237;55294;-67
2023/05/15 07:00:12;;;;;;;;;12.75;11.50;22.20;41.00;;;;;;111692;1236;54188;-66
2023/05/15 07:02:39;;;;;;;;;13.00;11.75;22.20;41.10;;;;;;111680;1239;49031;-66
2023/05/15 07:05:07;;;;;;;;;14.25;13.00;22.20;40.90;;;;;;111706;1237;49233;-66
2023/05/15 07:07:34;;;;;;;;;11.00;10.00;22.20;41.20;;;;;;111703;1241;45519;-68
2023/05/15 07:10:01;;;;;;;;;15.75;14.50;22.20;40.90;;;;;;111827;1236;56702;-67
2023/05/15 07:12:28;;;;;;;;;14.00;13.00;22.20;41.00;;;;;;111647;1237;54701;-69
2023/05/15 07:14:55;;;;;;;;;12.67;11.00;22.20;41.00;;;;;;111973;1237;48928;-67
2023/05/15 07:17:22;;;;;;;;;16.00;12.00;22.30;41.20;;;;;;111770;1240;49770;-68
2023/05/15 07:19:49;;;;;;;;;13.00;12.00;22.30;41.00;;;;;;111760;1237;46106;-67
2023/05/15 07:22:16;;;;;;;;;16.00;13.00;22.30;40.90;;;;;;111767;1240;55538;-67
2023/05/15 07:24:43;;;;;;;;;14.00;13.00;22.40;41.20;;;;;;112064;1241;54036;-66
2023/05/15 07:27:10;;;;;;;;;12.00;11.00;22.40;41.20;;;;;;111686;1240;48927;-66
2023/05/15 07:29:37;;;;;;;;;11.00;10.00;22.40;41.20;;;;;;111622;1242;50467;-67
2023/05/15 07:32:04;;;;;;;;;14.75;12.50;22.50;41.00;;;;;;111488;1237;46055;-67
2023/05/15 07:34:31;;;;;;;;;11.75;10.25;22.50;41.00;;;;;;111822;1240;55663;-67
2023/05/15 07:36:58;;;;;;;;;12.33;11.00;22.50;41.00;;;;;;111703;1237;53661;-68
2023/05/15 07:39:25;;;;;;;;;11.75;10.00;22.50;41.00;;;;;;111687;1236;49444;-66
2023/05/15 07:41:52;;;;;;;;;12.00;11.00;22.60;41.00;;;;;;111750;1240;50544;-67
2023/05/15 07:44:18;;;;;;;;;15.67;12.67;22.60;41.00;;;;;;111694;1240;45394;-67
2023/05/15 07:46:45;;;;;;;;;14.25;13.00;22.60;40.90;;;;;;111654;1237;55420;-67
2023/05/15 07:49:12;;;;;;;;;15.67;12.33;22.60;40.90;;;;;;111786;1240;53461;-68
2023/05/15 07:51:39;;;;;;;;;12.00;11.00;22.70;41.00;;;;;;111680;1240;49679;-68
2023/05/15 07:54:06;;;;;;;;;12.75;11.75;22.70;40.90;;;;;;111656;1240;50335;-68
2023/05/15 07:56:34;;;;;;;;;12.75;11.75;22.70;40.90;;;;;;111580;1238;46617;-67
2023/05/15 07:59:01;;;;;;;;;13.50;12.25;22.70;40.90;;;;;;111709;1237;55912;-68
2023/05/15 08:01:27;;;;;;;;;12.00;11.00;22.70;40.90;;;;;;111670;1241;54218;-68
2023/05/15 08:03:55;;;;;;;;;12.00;11.00;22.80;40.90;;;;;;111691;1238;51964;-66
2023/05/15 08:06:22;;;;;;;;;13.50;12.50;22.80;40.90;;;;;;111653;1240;49363;-67
2023/05/15 08:08:49;;;;;;;;;12.75;11.25;22.80;40.90;;;;;;111675;1238;45130;-67
2023/05/15 08:11:17;;;;;;;;;11.00;10.00;22.80;41.00;;;;;;111751;1238;56793;-67
2023/05/15 08:13:44;;;;;;;;;13.75;11.75;22.80;40.80;;;;;;111591;1240;54958;-67
2023/05/15 08:16:10;;;;;;;;;12.50;10.50;22.80;40.80;;;;;;112106;1238;50226;-68
2023/05/15 08:18:37;;;;;;;;;11.75;10.75;22.90;40.90;;;;;;111685;1238;49479;-66
2023/05/15 08:21:04;;;;;;;;;12.33;11.00;22.90;40.80;;;;;;111565;1240;46956;-67
2023/05/15 08:23:32;;;;;;;;;12.00;10.75;22.90;40.80;;;;;;111652;1237;55315;-67
2023/05/15 08:25:59;;;;;;;;;12.00;10.00;22.90;40.80;;;;;;111990;1241;53532;-67
2023/05/15 08:28:26;;;;;;;;;13.25;12.00;22.90;40.80;;;;;;111723;1236;50241;-65
2023/05/15 08:30:52;;;;;;;;;10.75;10.00;23.00;40.80;;;;;;111638;1243;49654;-66
2023/05/15 08:33:19;;;;;;;;;15.00;13.33;23.00;40.80;;;;;;111810;1238;45460;-67
2023/05/15 08:35:46;;;;;;;;;11.00;10.00;23.00;40.80;;;;;;112074;1238;57373;-67
2023/05/15 08:38:13;;;;;;;;;11.00;10.00;23.00;40.90;;;;;;111364;1240;53702;-68
2023/05/15 08:40:45;;;;;;;;;12.25;10.00;23.00;40.70;;;;;;111776;1245;49173;-66
2023/05/15 08:43:15;;;;;;;;;10.50;9.50;23.00;40.90;;;;;;111684;1237;49241;-67
2023/05/15 08:45:43;;;;;;;;;13.25;11.00;23.00;40.70;;;;;;112070;1237;45815;-68
2023/05/15 08:48:13;;;;;;;;;13.00;11.75;23.00;41.00;;;;;;111693;1237;54986;-67
2023/05/15 08:50:40;;;;;;;;;13.67;10.00;23.10;40.90;;;;;;111853;1238;53265;-66
2023/05/15 08:53:07;;;;;;;;;10.25;9.50;23.10;40.90;;;;;;111693;1238;49600;-66
2023/05/15 08:55:34;;;;;;;;;11.75;10.75;23.10;40.90;;;;;;111698;1247;49579;-67
2023/05/15 08:58:01;;;;;;;;;12.00;11.00;23.10;40.70;;;;;;111681;1237;45214;-67
2023/05/15 09:00:29;;;;;;;;;11.00;10.00;23.10;40.90;;;;;;111294;1237;624799;-66
2023/05/15 09:02:59;;;;;;;;;13.00;10.75;23.10;40.90;;;;;;111546;1237;54163;-67
2023/05/15 09:05:29;;;;;;;;;11.75;10.75;23.10;40.80;;;;;;111911;1243;50573;-68
2023/05/15 09:07:58;;;;;;;;;13.00;12.00;23.10;40.80;;;;;;111672;1237;49650;-67
2023/05/15 09:10:25;;;;;;;;;12.75;11.50;23.10;40.70;;;;;;111605;1237;45578;-67
2023/05/15 09:12:52;;;;;;;;;12.25;11.00;23.10;40.70;;;;;;111695;1247;55406;-67
2023/05/15 09:15:23;;;;;;;;;14.00;11.00;23.10;40.70;;;;;;112066;1236;54115;-67
2023/05/15 09:17:51;;;;;;;;;14.00;11.67;23.10;41.00;;;;;;111673;1236;49783;-66
2023/05/15 09:20:25;;;;;;;;;13.75;12.75;23.10;40.70;;;;;;111502;1238;50311;-67
2023/05/15 09:22:54;;;;;;;;;14.00;11.00;23.10;40.70;;;;;;111694;1241;45796;-66
2023/05/15 09:25:43;;;;;;;;;12.00;11.00;23.10;40.90;;;;;;111473;1237;55455;-68
2023/05/15 09:28:24;;;;;;;;;10.25;9.25;23.10;40.80;;;;;;111790;1241;54962;-68
2023/05/15 09:30:57;;;;;;;;;13.50;12.50;23.10;40.70;;;;;;111641;1237;50317;-67
2023/05/15 09:33:35;;;;;;;;;12.00;11.00;23.10;40.70;;;;;;111609;1236;49304;-67
2023/05/15 09:36:04;;;;;;;;;13.00;12.00;23.10;40.70;;;;;;111868;1238;45181;-67
2023/05/15 09:38:35;;;;;;;;;14.00;13.00;23.10;40.70;;;;;;111710;1238;54964;-66
2023/05/15 09:41:04;;;;;;;;;12.33;11.00;23.20;40.80;;;;;;111543;1242;54165;-67
2023/05/15 09:43:38;;;;;;;;;12.00;11.00;23.20;41.00;;;;;;111681;1240;50798;-67
2023/05/15 09:46:07;;;;;;;;;11.00;10.00;23.20;40.80;;;;;;112023;1241;49480;-66
2023/05/15 09:48:34;;;;;;;;;11.75;11.00;23.10;40.70;;;;;;111365;1241;46134;-67
2023/05/15 09:51:03;;;;;;;;;10.50;9.50;23.20;40.80;;;;;;111562;1237;56243;-67
2023/05/15 09:53:31;;;;;;;;;12.00;11.00;23.10;40.90;;;;;;111483;1243;53769;-68
2023/05/15 09:55:58;;;;;;;;;11.75;10.75;23.10;40.80;;;;;;112077;1239;49353;-67
2023/05/15 09:58:24;;;;;;;;;13.50;12.00;23.10;40.80;;;;;;111692;1236;49802;-68
2023/05/15 10:00:52;;;;;;;;;11.00;10.00;23.10;40.70;;;;;;111676;1238;45452;-67
2023/05/15 10:03:19;;;;;;;;;13.00;11.75;23.10;40.70;;;;;;111764;1240;55625;-67
2023/05/15 10:05:46;;;;;;;;;12.50;11.50;23.10;41.00;;;;;;112020;1241;53463;-67
2023/05/15 10:08:14;;;;;;;;;14.00;12.75;23.10;40.80;;;;;;111706;1238;50684;-68
2023/05/15 10:10:42;;;;;;;;;12.67;12.00;23.20;40.80;;;;;;111667;1238;49029;-68
2023/05/15 10:13:10;;;;;;;;;11.25;10.25;23.10;40.70;;;;;;111698;1237;45876;-67
2023/05/15 10:15:37;;;;;;;;;15.25;11.00;23.10;41.00;;;;;;112076;1237;55586;-66
2023/05/15 10:18:05;;;;;;;;;12.00;11.00;23.10;40.90;;;;;;111597;1241;55429;-66
2023/05/15 10:20:34;;;;;;;;;11.00;10.00;23.20;40.90;;;;;;111644;1238;48986;-68
2023/05/15 10:23:05;;;;;;;;;12.00;11.00;23.20;40.80;;;;;;111576;1241;49475;-67
2023/05/15 10:25:53;;;;;;;;;13.75;10.25;23.20;40.90;;;;;;111799;1237;46822;-67
2023/05/15 10:28:21;;;;;;;;;13.00;11.75;23.20;40.90;;;;;;111743;1238;56449;-67
2023/05/15 10:30:48;;;;;;;;;13.50;12.25;23.20;40.80;;;;;;111621;1241;53392;-66
2023/05/15 10:33:15;;;;;;;;;12.00;10.75;23.20;40.80;;;;;;111594;1238;50507;-67
2023/05/15 10:35:43;;;;;;;;;11.00;9.75;23.20;40.90;;;;;;111632;1240;49051;-66
2023/05/15 10:38:10;;;;;;;;;12.00;10.00;23.20;40.90;;;;;;111348;1240;45538;-67
2023/05/15 10:40:39;;;;;;;;;13.00;12.00;23.20;40.90;;;;;;111766;1241;55828;-67
2023/05/15 10:43:10;;;;;;;;;11.00;10.00;23.20;40.90;;;;;;111509;1244;53433;-67
2023/05/15 10:45:38;;;;;;;;;11.75;10.75;23.20;41.10;;;;;;112040;1240;49952;-66
2023/05/15 10:48:06;;;;;;;;;12.67;11.67;23.20;41.00;;;;;;111616;1237;50374;-67
2023/05/15 10:50:35;;;;;;;;;12.67;11.67;23.20;40.90;;;;;;111696;1240;45305;-67
2023/05/15 10:53:03;;;;;;;;;11.75;10.75;23.20;40.90;;;;;;111705;1237;55362;-68
2023/05/15 10:55:30;;;;;;;;;13.50;12.50;23.30;41.20;;;;;;112050;1238;54498;-67
2023/05/15 10:57:58;;;;;;;;;12.00;10.75;23.30;41.00;;;;;;111797;1240;49650;-67
2023/05/15 11:00:30;;;;;;;;;14.00;12.67;23.30;40.90;;;;;;111634;1240;49259;-67
2023/05/15 11:02:57;;;;;;;;;11.75;10.75;23.30;40.90;;;;;;111606;1237;46100;-67
2023/05/15 11:05:25;;;;;;;;;14.25;10.00;23.30;40.90;;;;;;112047;1236;55791;-67
2023/05/15 11:08:14;;;;;;;;;13.67;12.67;23.40;40.90;;;;;;111604;1240;54818;-67
2023/05/15 11:10:41;;;;;;;;;12.00;11.25;23.40;40.90;;;;;;111747;1240;49259;-67
2023/05/15 11:13:08;;;;;;;;;11.25;10.00;23.40;40.90;;;;;;111756;1236;50061;-67
2023/05/15 11:15:43;;;;;;;;;15.00;13.00;23.40;40.90;;;;;;111910;1238;45517;-67
2023/05/15 11:18:10;;;;;;;;;12.00;9.75;23.40;40.90;;;;;;111760;1241;55956;-67
2023/05/15 11:20:42;;;;;;;;;11.00;10.00;23.40;41.40;;;;;;111610;1241;53974;-66
2023/05/15 11:23:09;;;;;;;;;14.00;11.00;23.40;40.80;;;;;;111688;1241;49164;-68
2023/05/15 11:25:36;;;;;;;;;10.50;9.50;23.40;41.00;;;;;;111868;1237;49686;-67
2023/05/15 11:28:03;;;;;;;;;13.50;12.00;23.40;40.90;;;;;;111650;1240;45534;-66
2023/05/15 11:30:36;;;;;;;;;11.50;10.50;23.40;40.90;;;;;;111661;1240;55494;-68
2023/05/15 11:33:08;;;;;;;;;10.00;9.00;23.40;40.90;;;;;;111711;1240;54118;-69
2023/05/15 11:35:45;;;;;;;;;12.75;12.00;23.40;40.90;;;;;;111843;1238;48999;-68
2023/05/15 11:38:17;;;;;;;;;11.00;10.00;23.40;40.90;;;;;;111696;1240;50041;-68
2023/05/15 11:40:47;;;;;;;;;13.00;12.00;23.40;40.80;;;;;;111688;1241;45511;-67
2023/05/15 11:43:24;;;;;;;;;10.75;9.75;23.40;40.90;;;;;;111774;1238;56309;-67
2023/05/15 11:45:54;;;;;;;;;12.75;11.75;23.40;40.90;;;;;;112088;1240;54076;-67
2023/05/15 11:48:29;;;;;;;;;12.00;10.25;23.40;40.90;;;;;;111781;1241;48907;-68
2023/05/15 11:50:56;;;;;;;;;14.00;11.75;23.50;40.90;;;;;;111734;1237;49627;-68
2023/05/15 11:53:23;;;;;;;;;12.00;11.00;23.50;40.90;;;;;;111647;1238;45552;-68
2023/05/15 11:55:53;;;;;;;;;11.00;8.50;23.50;40.90;;;;;;111911;1243;56158;-67
2023/05/15 11:58:21;;;;;;;;;11.00;10.00;23.40;40.90;;;;;;111704;1241;54792;-68
2023/05/15 12:00:49;;;;;;;;;11.00;9.75;23.50;40.90;;;;;;111662;1237;49126;-67
2023/05/15 12:03:20;;;;;;;;;12.75;11.75;23.50;41.10;;;;;;111772;1237;49398;-67
2023/05/15 12:05:47;;;;;;;;;14.75;12.25;23.50;41.00;;;;;;111882;1237;46973;-68
2023/05/15 12:08:14;;;;;;;;;13.75;12.50;23.50;41.00;;;;;;111385;1238;56325;-68
2023/05/15 12:10:44;;;;;;;;;11.33;10.00;23.50;40.90;;;;;;111711;1238;53562;-67
2023/05/15 12:13:13;;;;;;;;;11.50;10.00;23.50;41.00;;;;;;111612;1236;49277;-68
2023/05/15 12:15:43;;;;;;;;;11.75;10.50;23.50;41.00;;;;;;111600;1237;49708;-68
2023/05/15 12:18:10;;;;;;;;;12.50;10.00;23.50;41.00;;;;;;111532;1237;45603;-68
2023/05/15 12:20:39;;;;;;;;;11.00;10.00;23.40;40.90;;;;;;111592;1236;55141;-67
2023/05/15 12:23:07;;;;;;;;;11.75;10.75;23.40;41.10;;;;;;111561;1237;54388;-69
2023/05/15 12:25:35;;;;;;;;;14.67;12.67;23.40;40.90;;;;;;111917;1238;50494;-67